createdAt,value
2022-10-16T00:01:30.417Z,100065.63
2022-10-16T00:03:59.966Z,100074.22
2022-10-16T00:06:28.859Z,100065.56
2022-10-16T00:08:57.836Z,100069.94
2022-10-16T00:11:30.122Z,100074.31
2022-10-16T00:14:01.427Z,100071.88
2022-10-16T00:16:30.487Z,100063.38
2022-10-16T00:18:59.073Z,100070.53
2022-10-16T00:21:29.687Z,100078.50
2022-10-16T00:24:01.032Z,100071.72
2022-10-16T00:26:32.406Z,100067.50
2022-10-16T00:29:01.015Z,100076.34
2022-10-16T00:31:29.627Z,100073.03
2022-10-16T00:33:57.995Z,100074.00
2022-10-16T00:36:28.632Z,100074.00
2022-10-16T00:41:35.625Z,100073.50
2022-10-16T00:44:06.223Z,100079.72
2022-10-16T00:46:39.525Z,100085.03
2022-10-16T00:49:10.838Z,100084.19
2022-10-16T00:51:41.910Z,100077.53
2022-10-16T00:54:13.929Z,100082.72
2022-10-16T00:56:44.469Z,100079.38
2022-10-16T00:59:17.740Z,100085.44
2022-10-16T01:01:45.982Z,100086.44
2022-10-16T01:04:14.576Z,100092.47
2022-10-16T01:06:49.137Z,100091.53
2022-10-16T01:09:23.390Z,100090.78
2022-10-16T01:12:06.848Z,100088.38
2022-10-16T01:14:43.526Z,100090.19
2022-10-16T01:17:16.982Z,100087.59
2022-10-16T01:20:02.547Z,100091.13
2022-10-16T01:22:39.621Z,100093.78
2022-10-16T01:25:14.352Z,100099.91
2022-10-16T01:27:46.895Z,100091.34
2022-10-16T01:30:19.783Z,100089.66
2022-10-16T01:32:51.956Z,100091.53
2022-10-16T01:35:24.399Z,100095.03
2022-10-16T01:37:55.196Z,100093.06
2022-10-16T01:40:26.495Z,100093.75
2022-10-16T01:43:01.527Z,100091.84
2022-10-16T01:45:34.088Z,100094.44
2022-10-16T01:48:06.106Z,100091.84
2022-10-16T01:50:38.057Z,100090.16
2022-10-16T01:53:07.792Z,100084.94
2022-10-16T01:55:45.939Z,100085.84
2022-10-16T01:58:16.803Z,100080.97
2022-10-16T02:00:49.178Z,100081.81
2022-10-16T02:03:19.721Z,100075.41
2022-10-16T02:05:51.369Z,100074.34
2022-10-16T02:08:20.242Z,100079.38
2022-10-16T02:10:48.474Z,100079.28
2022-10-16T02:13:23.197Z,100077.53
2022-10-16T02:15:51.421Z,100075.88
2022-10-16T02:18:22.996Z,100074.09
2022-10-16T02:20:57.673Z,100071.41
2022-10-16T02:23:34.620Z,100071.47
2022-10-16T02:26:07.167Z,100072.44
2022-10-16T02:28:40.018Z,100074.72
2022-10-16T02:31:13.973Z,100070.28
2022-10-16T02:33:44.640Z,100075.63
2022-10-16T02:36:13.067Z,100075.63
2022-10-16T02:38:43.151Z,100078.34
2022-10-16T02:41:12.539Z,100069.75
2022-10-16T02:43:42.667Z,100071.59
2022-10-16T02:46:10.897Z,100068.31
2022-10-16T02:48:40.304Z,100075.44
2022-10-16T02:51:09.665Z,100075.69
2022-10-16T02:53:37.863Z,100074.06
2022-10-16T02:56:06.525Z,100076.75
2022-10-16T02:58:35.040Z,100080.25
2022-10-16T03:01:05.149Z,100071.72
2022-10-16T03:03:33.455Z,100071.78
2022-10-16T03:06:01.655Z,100063.22
2022-10-16T03:08:31.101Z,100063.28
2022-10-16T03:10:59.337Z,100062.53
2022-10-16T03:13:31.061Z,100063.53
2022-10-16T03:15:59.515Z,100065.34
2022-10-16T03:18:29.097Z,100061.91
2022-10-16T03:20:57.586Z,100057.66
2022-10-16T03:23:26.243Z,100058.50
2022-10-16T03:25:55.089Z,100058.50
2022-10-16T03:28:23.342Z,100059.41
2022-10-16T03:30:52.595Z,100061.91
2022-10-16T03:33:20.993Z,100056.69
2022-10-16T03:35:55.765Z,100061.09
2022-10-16T03:38:24.786Z,100061.16
2022-10-16T03:40:53.474Z,100063.81
2022-10-16T03:43:21.699Z,100072.47
2022-10-16T03:45:49.940Z,100072.47
2022-10-16T03:48:18.110Z,100065.44
2022-10-16T03:50:47.091Z,100068.09
2022-10-16T03:53:17.211Z,100069.84
2022-10-16T03:55:45.862Z,100075.16
2022-10-16T03:58:14.350Z,100068.25
2022-10-16T04:00:43.699Z,100066.50
2022-10-16T04:03:12.242Z,100070.78
2022-10-16T04:05:40.669Z,100069.09
2022-10-16T04:08:09.238Z,100059.72
2022-10-16T04:10:39.341Z,100065.75
2022-10-16T04:13:07.631Z,100066.03
2022-10-16T04:15:35.837Z,100065.28
2022-10-16T04:18:04.054Z,100069.63
2022-10-16T04:20:32.270Z,100073.84
2022-10-16T04:23:00.429Z,100075.59
2022-10-16T04:25:28.634Z,100072.06
2022-10-16T04:27:58.655Z,100073.69
2022-10-16T04:30:27.521Z,100078.81
2022-10-16T04:32:55.885Z,100075.16
2022-10-16T04:35:24.538Z,100072.47
2022-10-16T04:37:52.723Z,100065.44
2022-10-16T04:40:21.253Z,100074.69
2022-10-16T04:42:49.500Z,100063.28
2022-10-16T04:45:19.510Z,100076.13
2022-10-16T04:47:47.693Z,100075.22
2022-10-16T04:50:15.846Z,100073.47
2022-10-16T04:53:02.776Z,100075.22
2022-10-16T04:55:30.986Z,100073.53
2022-10-16T04:57:59.374Z,100086.53
2022-10-16T05:00:29.326Z,100081.31
2022-10-16T05:02:58.225Z,100083.09
2022-10-16T05:05:26.728Z,100085.69
2022-10-16T05:07:55.157Z,100076.06
2022-10-16T05:10:23.386Z,100086.38
2022-10-16T05:12:52.321Z,100088.84
2022-10-16T05:15:21.014Z,100087.22
2022-10-16T05:17:55.165Z,100092.50
2022-10-16T05:20:24.561Z,100084.72
2022-10-16T05:22:52.807Z,100080.25
2022-10-16T05:25:20.974Z,100093.63
2022-10-16T05:27:50.298Z,100084.09
2022-10-16T05:30:19.167Z,100092.88
2022-10-16T05:32:50.703Z,100091.19
2022-10-16T05:35:20.459Z,100087.84
2022-10-16T05:37:49.845Z,100097.09
2022-10-16T05:40:19.290Z,100084.41
2022-10-16T05:42:47.432Z,100097.50
2022-10-16T05:45:15.907Z,100092.03
2022-10-16T05:47:44.048Z,100093.88
2022-10-16T05:50:13.686Z,100082.25
2022-10-16T05:52:41.895Z,100076.91
2022-10-16T05:55:10.745Z,100075.06
2022-10-16T05:57:38.913Z,100081.94
2022-10-16T06:00:08.386Z,100083.66
2022-10-16T06:02:40.928Z,100079.66
2022-10-16T06:05:09.248Z,100076.59
2022-10-16T06:07:38.971Z,100071.41
2022-10-16T06:10:08.596Z,100076.59
2022-10-16T06:12:36.743Z,100078.13
2022-10-16T06:15:05.494Z,100081.47
2022-10-16T06:17:35.356Z,100083.22
2022-10-16T06:20:03.559Z,100074.59
2022-10-16T06:22:32.006Z,100066.78
2022-10-16T06:25:01.962Z,100077.97
2022-10-16T06:27:30.516Z,100078.28
2022-10-16T06:29:58.664Z,100065.13
2022-10-16T06:32:27.085Z,100072.94
2022-10-16T06:34:56.402Z,100061.00
2022-10-16T06:37:26.189Z,100074.91
2022-10-16T06:39:54.595Z,100074.91
2022-10-16T06:42:24.319Z,100072.41
2022-10-16T06:44:53.072Z,100081.16
2022-10-16T06:47:23.231Z,100074.22
2022-10-16T06:49:54.313Z,100070.00
2022-10-16T06:52:22.710Z,100067.34
2022-10-16T06:54:52.129Z,100067.34
2022-10-16T06:57:20.610Z,100065.50
2022-10-16T06:59:55.147Z,100061.75
2022-10-16T07:02:23.838Z,100063.38
2022-10-16T07:04:52.772Z,100066.63
2022-10-16T07:07:21.010Z,100061.59
2022-10-16T07:09:49.740Z,100057.91
2022-10-16T07:12:17.992Z,100061.28
2022-10-16T07:14:46.625Z,100064.66
2022-10-16T07:17:16.218Z,100071.75
2022-10-16T07:19:44.435Z,100065.66
2022-10-16T07:22:12.741Z,100068.41
2022-10-16T07:24:41.265Z,100071.69
2022-10-16T07:27:09.686Z,100076.75
2022-10-16T07:29:37.958Z,100058.38
2022-10-16T07:32:06.638Z,100047.97
2022-10-16T07:34:36.482Z,100050.63
2022-10-16T07:37:04.911Z,100065.06
2022-10-16T07:39:34.707Z,100071.06
2022-10-16T07:42:03.330Z,100069.69
2022-10-16T07:44:32.705Z,100068.94
2022-10-16T07:47:01.154Z,100068.78
2022-10-16T07:49:29.345Z,100063.63
2022-10-16T07:51:58.860Z,100058.06
2022-10-16T07:54:27.655Z,100053.00
2022-10-16T07:56:56.312Z,100064.16
2022-10-16T07:59:24.894Z,100057.13
2022-10-16T08:01:53.897Z,100067.28
2022-10-16T08:04:22.595Z,100068.22
2022-10-16T08:06:50.900Z,100057.50
2022-10-16T08:09:20.505Z,100057.41
2022-10-16T08:11:48.943Z,100040.88
2022-10-16T08:14:17.104Z,100051.19
2022-10-16T08:16:46.016Z,100058.94
2022-10-16T08:19:15.016Z,100054.47
2022-10-16T08:21:44.324Z,100051.63
2022-10-16T08:24:13.022Z,100044.00
2022-10-16T08:26:43.298Z,100041.84
2022-10-16T08:29:11.595Z,100035.13
2022-10-16T08:31:40.162Z,100028.38
2022-10-16T08:34:08.362Z,100037.72
2022-10-16T08:36:36.545Z,100027.06
2022-10-16T08:39:05.524Z,100042.53
2022-10-16T08:42:04.095Z,100044.09
2022-10-16T08:45:01.889Z,100037.66
2022-10-16T08:47:44.599Z,100047.63
2022-10-16T08:50:16.084Z,100045.19
2022-10-16T08:52:46.557Z,100042.47
2022-10-16T08:55:33.365Z,100043.72
2022-10-16T08:58:03.790Z,100044.50
2022-10-16T09:00:32.874Z,100038.00
2022-10-16T09:03:12.691Z,100034.56
2022-10-16T09:05:58.853Z,100033.31
2022-10-16T09:08:34.669Z,100023.75
2022-10-16T09:11:09.213Z,100025.66
2022-10-16T09:13:49.728Z,100024.75
2022-10-16T09:16:25.419Z,100010.28
2022-10-16T09:19:00.985Z,100014.97
2022-10-16T09:21:32.093Z,100013.22
2022-10-16T09:24:02.466Z,100024.91
2022-10-16T09:26:30.761Z,100026.06
2022-10-16T09:29:00.564Z,100019.03
2022-10-16T09:31:29.112Z,100009.63
2022-10-16T09:34:00.713Z,100005.56
2022-10-16T09:36:31.364Z,100018.59
2022-10-16T09:39:07.645Z,100015.16
2022-10-16T09:41:38.925Z,100015.06
2022-10-16T09:44:20.085Z,100007.59
2022-10-16T09:46:48.863Z,100017.66
2022-10-16T09:49:25.846Z,100008.31
2022-10-16T09:52:06.161Z,100014.00
2022-10-16T09:54:34.652Z,100012.63
2022-10-16T09:57:09.618Z,100003.13
2022-10-16T09:59:48.243Z,99985.16
2022-10-16T10:02:18.475Z,99997.91
2022-10-16T10:04:52.421Z,99985.84
2022-10-16T10:07:27.255Z,99990.25
2022-10-16T10:09:56.950Z,99986.94
2022-10-16T10:12:27.728Z,99992.22
2022-10-16T10:14:59.324Z,99991.91
2022-10-16T10:17:29.869Z,99998.09
2022-10-16T10:20:01.664Z,99995.16
2022-10-16T10:22:41.930Z,99985.06
2022-10-16T10:25:35.631Z,99989.19
2022-10-16T10:28:44.815Z,99977.84
2022-10-16T10:31:19.428Z,99979.91
2022-10-16T10:33:52.534Z,99963.28
2022-10-16T10:36:35.009Z,99950.16
2022-10-16T10:39:08.121Z,99949.22
2022-10-16T10:42:11.400Z,99950.53
2022-10-16T10:44:53.949Z,99945.22
2022-10-16T10:47:29.277Z,99935.91
2022-10-16T10:50:09.507Z,99941.78
2022-10-16T10:52:47.134Z,99934.63
2022-10-16T10:55:26.825Z,99931.34
2022-10-16T10:58:15.803Z,99929.28
2022-10-16T11:00:55.642Z,99933.38
2022-10-16T11:03:43.588Z,99926.09
2022-10-16T11:06:14.782Z,99927.97
2022-10-16T11:08:49.126Z,99930.03
2022-10-16T11:11:23.897Z,99926.22
2022-10-16T11:14:00.790Z,99928.53
2022-10-16T11:16:31.741Z,99926.59
2022-10-16T11:19:14.190Z,99928.81
2022-10-16T11:21:51.508Z,99926.31
2022-10-16T11:24:25.444Z,99916.25
2022-10-16T11:26:56.379Z,99916.53
2022-10-16T11:29:28.761Z,99911.03
2022-10-16T11:31:59.669Z,99894.16
2022-10-16T11:34:36.976Z,99889.81
2022-10-16T11:37:12.056Z,99882.13
2022-10-16T11:39:43.056Z,99883.09
2022-10-16T11:42:13.869Z,99871.91
2022-10-16T11:44:53.463Z,99863.34
2022-10-16T11:50:28.921Z,99865.19
2022-10-16T11:53:03.764Z,99859.88
2022-10-16T11:55:36.515Z,99858.13
2022-10-16T11:58:08.358Z,99851.03
2022-10-16T12:00:42.865Z,99839.47
2022-10-16T12:03:20.547Z,99846.66
2022-10-16T12:06:15.361Z,99824.06
2022-10-16T12:08:45.598Z,99822.88
2022-10-16T12:11:37.944Z,99818.72
2022-10-16T12:14:09.307Z,99819.78
2022-10-16T12:16:40.330Z,99819.38
2022-10-16T12:19:15.022Z,99817.31
2022-10-16T12:21:47.167Z,99809.19
2022-10-16T12:24:30.050Z,99803.47
2022-10-16T12:26:58.545Z,99800.03
2022-10-16T12:29:35.522Z,99794.88
2022-10-16T12:32:05.501Z,99783.91
2022-10-16T12:34:41.955Z,99780.47
2022-10-16T12:37:17.322Z,99764.25
2022-10-16T12:39:46.749Z,99773.06
2022-10-16T12:42:35.824Z,99775.31
2022-10-16T12:45:15.711Z,99757.78
2022-10-16T12:47:52.491Z,99766.94
2022-10-16T12:50:36.572Z,99759.47
2022-10-16T12:53:20.003Z,99745.06
2022-10-16T12:56:03.192Z,99729.25
2022-10-16T12:59:03.913Z,99745.84
2022-10-16T13:01:53.541Z,99739.31
2022-10-16T13:04:49.357Z,99717.50
2022-10-16T13:07:34.026Z,99719.91
2022-10-16T13:10:17.140Z,99713.34
2022-10-16T13:13:11.842Z,99725.84
2022-10-16T13:15:58.714Z,99710.44
2022-10-16T13:18:35.420Z,99705.94
2022-10-16T13:21:13.663Z,99694.78
2022-10-16T13:23:55.616Z,99693.81
2022-10-16T13:26:36.778Z,99673.44
2022-10-16T13:29:06.744Z,99686.91
2022-10-16T13:31:35.544Z,99696.84
2022-10-16T13:34:07.785Z,99674.56
2022-10-16T13:36:38.168Z,99677.22
2022-10-16T13:39:18.337Z,99665.47
2022-10-16T13:41:48.073Z,99681.16
2022-10-16T13:44:20.768Z,99676.94
2022-10-16T13:47:01.398Z,99678.50
2022-10-16T13:49:29.954Z,99662.41
2022-10-16T13:51:59.285Z,99685.09
2022-10-16T13:54:29.798Z,99675.88
2022-10-16T13:57:22.640Z,99671.66
2022-10-16T13:59:56.227Z,99687.25
2022-10-16T14:02:29.787Z,99674.25
2022-10-16T14:04:59.840Z,99662.97
2022-10-16T14:07:30.577Z,99663.00
2022-10-16T14:10:03.784Z,99668.59
2022-10-16T14:12:34.223Z,99663.13
2022-10-16T14:15:03.705Z,99660.28
2022-10-16T14:17:35.386Z,99645.25
2022-10-16T14:20:07.225Z,99668.84
2022-10-16T14:22:37.764Z,99664.34
2022-10-16T14:25:27.523Z,99660.75
2022-10-16T14:30:38.125Z,99670.47
2022-10-16T14:33:08.797Z,99669.28
2022-10-16T14:35:39.891Z,99687.13
2022-10-16T14:38:19.900Z,99669.06
2022-10-16T14:40:51.370Z,99663.38
2022-10-16T14:43:24.417Z,99657.31
2022-10-16T14:45:55.162Z,99662.38
2022-10-16T14:48:24.530Z,99679.28
2022-10-16T14:50:53.149Z,99679.16
2022-10-16T14:53:21.567Z,99672.13
2022-10-16T14:55:50.500Z,99670.47
2022-10-16T14:58:23.495Z,99672.19
2022-10-16T15:00:52.127Z,99676.59
2022-10-16T15:03:20.607Z,99667.69
2022-10-16T15:05:49.019Z,99672.06
2022-10-16T15:08:17.579Z,99683.06
2022-10-16T15:10:46.677Z,99666.47
2022-10-16T15:13:16.244Z,99672.75
2022-10-16T15:15:48.596Z,99671.53
2022-10-16T15:18:23.933Z,99672.91
2022-10-16T15:20:52.903Z,99665.69
2022-10-16T15:23:22.943Z,99661.50
2022-10-16T15:25:53.046Z,99689.06
2022-10-16T15:28:23.604Z,99674.44
2022-10-16T15:30:54.069Z,99669.06
2022-10-16T15:33:24.463Z,99691.28
2022-10-16T15:35:54.495Z,99648.97
2022-10-16T15:38:24.790Z,99661.13
2022-10-16T15:40:53.082Z,99659.66
2022-10-16T15:43:21.633Z,99664.38
2022-10-16T15:46:01.048Z,99672.38
2022-10-16T15:48:30.468Z,99679.75
2022-10-16T15:50:58.799Z,99685.53
2022-10-16T15:53:27.604Z,99678.09
2022-10-16T15:55:57.221Z,99674.31
2022-10-16T15:58:25.793Z,99676.66
2022-10-16T16:00:59.101Z,99679.69
2022-10-16T16:03:28.058Z,99695.69
2022-10-16T16:05:56.858Z,99692.22
2022-10-16T16:08:25.493Z,99692.56
2022-10-16T16:11:00.928Z,99679.28
2022-10-16T16:13:29.419Z,99677.81
2022-10-16T16:15:59.477Z,99676.44
2022-10-16T16:18:28.083Z,99676.34
2022-10-16T16:20:56.702Z,99687.34
2022-10-16T16:23:25.596Z,99685.03
2022-10-16T16:26:10.873Z,99691.56
2022-10-16T16:28:39.496Z,99683.59
2022-10-16T16:31:09.854Z,99693.22
2022-10-16T16:33:38.063Z,99690.72
2022-10-16T16:36:14.523Z,99699.91
2022-10-16T16:38:44.197Z,99712.25
2022-10-16T16:41:15.411Z,99708.28
2022-10-16T16:43:44.456Z,99705.94
2022-10-16T16:46:14.326Z,99709.69
2022-10-16T16:48:44.633Z,99723.53
2022-10-16T16:51:16.355Z,99724.47
2022-10-16T16:53:47.231Z,99721.63
2022-10-16T16:56:15.645Z,99723.41
2022-10-16T16:58:46.970Z,99725.91
2022-10-16T17:01:21.134Z,99731.47
2022-10-16T17:03:53.157Z,99725.63
2022-10-16T17:06:22.535Z,99732.97
2022-10-16T17:08:51.661Z,99733.47
2022-10-16T17:11:22.647Z,99757.97
2022-10-16T17:13:55.529Z,99743.94
2022-10-16T17:16:29.300Z,99744.47
2022-10-16T17:18:58.605Z,99754.13
2022-10-16T17:21:30.615Z,99753.06
2022-10-16T17:23:59.414Z,99747.69
2022-10-16T17:26:27.818Z,99755.44
2022-10-16T17:28:58.516Z,99760.59
2022-10-16T17:31:29.743Z,99764.97
2022-10-16T17:33:59.191Z,99765.72
2022-10-16T17:36:29.708Z,99778.06
2022-10-16T17:39:01.762Z,99763.84
2022-10-16T17:41:30.345Z,99766.44
2022-10-16T17:43:58.703Z,99783.81
2022-10-16T17:46:28.630Z,99795.00
2022-10-16T17:48:57.640Z,99783.72
2022-10-16T17:51:30.647Z,99799.50
2022-10-16T17:54:01.379Z,99802.63
2022-10-16T17:56:30.165Z,99804.75
2022-10-16T17:59:00.729Z,99813.72
2022-10-16T18:01:32.283Z,99815.63
2022-10-16T18:04:02.271Z,99825.88
2022-10-16T18:06:31.878Z,99828.38
2022-10-16T18:09:01.297Z,99830.69
2022-10-16T18:11:30.105Z,99822.09
2022-10-16T18:14:00.302Z,99824.09
2022-10-16T18:16:32.532Z,99827.22
2022-10-16T18:19:00.725Z,99826.19
2022-10-16T18:21:29.789Z,99840.94
2022-10-16T18:24:00.230Z,99831.97
2022-10-16T18:26:29.199Z,99836.84
2022-10-16T18:29:00.767Z,99820.31
2022-10-16T18:31:31.470Z,99827.75
2022-10-16T18:34:00.004Z,99824.09
2022-10-16T18:36:30.692Z,99813.75
2022-10-16T18:39:00.055Z,99822.44
2022-10-16T18:41:29.351Z,99824.31
2022-10-16T18:43:57.784Z,99831.75
2022-10-16T18:46:27.274Z,99826.72
2022-10-16T18:48:58.210Z,99824.19
2022-10-16T18:51:28.981Z,99820.66
2022-10-16T18:54:00.124Z,99830.06
2022-10-16T18:56:30.439Z,99831.13
2022-10-16T18:59:01.684Z,99833.19
2022-10-16T19:01:32.530Z,99836.56
2022-10-16T19:04:04.516Z,99844.09
2022-10-16T19:06:36.453Z,99856.72
2022-10-16T19:09:05.343Z,99836.78
2022-10-16T19:11:37.959Z,99834.66
2022-10-16T19:14:09.041Z,99841.56
2022-10-16T19:16:38.961Z,99843.25
2022-10-16T19:19:11.414Z,99847.13
2022-10-16T19:21:41.282Z,99848.69
2022-10-16T19:24:13.124Z,99846.69
2022-10-16T19:26:42.189Z,99836.13
2022-10-16T19:29:11.192Z,99840.09
2022-10-16T19:31:40.193Z,99845.13
2022-10-16T19:34:11.507Z,99850.56
2022-10-16T19:36:41.905Z,99848.06
2022-10-16T19:39:14.716Z,99855.28
2022-10-16T19:41:43.881Z,99852.78
2022-10-16T19:44:14.689Z,99855.50
2022-10-16T19:46:43.731Z,99859.25
2022-10-16T19:49:14.786Z,99860.91
2022-10-16T19:51:42.966Z,99866.25
2022-10-16T19:54:14.325Z,99877.78
2022-10-16T19:56:43.423Z,99879.97
2022-10-16T19:59:16.407Z,99882.38
2022-10-16T20:01:44.756Z,99883.44
2022-10-16T20:04:14.540Z,99888.88
2022-10-16T20:06:43.272Z,99885.50
2022-10-16T20:09:11.608Z,99887.06
2022-10-16T20:11:39.864Z,99894.81
2022-10-16T20:14:08.992Z,99886.56
2022-10-16T20:16:37.402Z,99892.63
2022-10-16T20:19:05.845Z,99897.63
2022-10-16T20:21:38.221Z,99904.09
2022-10-16T20:24:06.688Z,99909.53
2022-10-16T20:26:35.902Z,99907.13
2022-10-16T20:29:05.615Z,99917.91
2022-10-16T20:31:35.016Z,99913.72
2022-10-16T20:34:06.091Z,99921.25
2022-10-16T20:36:37.213Z,99902.88
2022-10-16T20:39:06.753Z,99907.97
2022-10-16T20:41:35.674Z,99920.41
2022-10-16T20:44:05.031Z,99929.22
2022-10-16T20:46:33.606Z,99922.81
2022-10-16T20:49:10.819Z,99918.34
2022-10-16T20:51:42.811Z,99920.19
2022-10-16T20:54:13.033Z,99925.84
2022-10-16T20:56:42.638Z,99915.31
2022-10-16T20:59:13.209Z,99930.22
2022-10-16T21:01:42.455Z,99930.03
2022-10-16T21:04:11.230Z,99929.22
2022-10-16T21:06:42.212Z,99937.63
2022-10-16T21:09:11.213Z,99937.97
2022-10-16T21:11:39.988Z,99939.97
2022-10-16T21:14:09.984Z,99951.47
2022-10-16T21:16:38.724Z,99975.19
2022-10-16T21:19:07.540Z,99973.03
2022-10-16T21:21:38.016Z,99983.19
2022-10-16T21:24:12.221Z,99985.16
2022-10-16T21:26:43.658Z,99998.72
2022-10-16T21:29:12.056Z,100006.38
2022-10-16T21:31:40.247Z,99998.81
2022-10-16T21:34:09.409Z,99988.34
2022-10-16T21:36:40.538Z,99999.97
2022-10-16T21:39:12.209Z,100008.00
2022-10-16T21:41:41.619Z,100007.16
2022-10-16T21:44:10.228Z,100008.09
2022-10-16T21:46:40.562Z,100004.34
2022-10-16T21:49:12.426Z,99996.31
2022-10-16T21:51:44.327Z,100007.50
2022-10-16T21:54:16.783Z,100003.94
2022-10-16T21:56:45.307Z,100000.59
2022-10-16T21:59:14.938Z,100020.06
2022-10-16T22:01:44.646Z,100029.50
2022-10-16T22:04:13.150Z,100025.94
2022-10-16T22:06:41.454Z,100017.34
2022-10-16T22:09:12.830Z,100018.94
2022-10-16T22:11:45.198Z,100013.81
2022-10-16T22:14:15.535Z,100030.41
2022-10-16T22:16:44.645Z,100028.97
2022-10-16T22:19:15.811Z,100040.88
2022-10-16T22:21:46.120Z,100028.56
2022-10-16T22:24:15.637Z,100031.91
2022-10-16T22:26:45.322Z,100034.53
2022-10-16T22:29:15.230Z,100034.34
2022-10-16T22:31:44.178Z,100038.00
2022-10-16T22:34:15.052Z,100037.72
2022-10-16T22:36:43.541Z,100036.41
2022-10-16T22:39:12.029Z,100036.22
2022-10-16T22:41:40.806Z,100033.78
2022-10-16T22:44:13.420Z,100044.81
2022-10-16T22:46:42.314Z,100044.13
2022-10-16T22:49:10.932Z,100046.94
2022-10-16T22:51:39.254Z,100049.56
2022-10-16T22:54:07.492Z,100053.78
2022-10-16T22:56:35.813Z,100063.59
2022-10-16T22:59:04.147Z,100064.50
2022-10-16T23:01:36.167Z,100063.78
2022-10-16T23:04:05.200Z,100071.16
2022-10-16T23:06:33.876Z,100093.91
2022-10-16T23:09:03.353Z,100103.53
2022-10-16T23:11:32.031Z,100102.53
2022-10-16T23:14:00.249Z,100098.50
2022-10-16T23:16:28.482Z,100108.47
2022-10-16T23:18:59.279Z,100119.31
2022-10-16T23:21:29.812Z,100134.34
2022-10-16T23:23:58.300Z,100114.94
2022-10-16T23:26:28.045Z,100132.56
2022-10-16T23:28:58.060Z,100144.50
2022-10-16T23:31:26.847Z,100150.75
2022-10-16T23:33:55.178Z,100155.25
2022-10-16T23:36:25.588Z,100155.34
2022-10-16T23:38:55.147Z,100160.19
2022-10-16T23:41:23.591Z,100159.53
2022-10-16T23:43:52.622Z,100158.59
2022-10-16T23:46:21.146Z,100166.34
2022-10-16T23:48:49.467Z,100160.91
2022-10-16T23:51:17.855Z,100161.94
2022-10-16T23:53:48.103Z,100185.38
2022-10-16T23:56:16.602Z,100184.25
2022-10-16T23:58:45.639Z,100190.69
